Terminal Aerodrome Forecast
Issued by NWS Tampa Bay Area, FL

Home | Current Version | Previous Version | Text Only | Print | Product List | Glossary On
Versions: 1 2 3 4 5 6 7 8 9 10 11 12 13 14 15
000
FTUS42 KTBW 222300
TAFSRQ
TAF
KSRQ 222339Z 2300/2324 09014KT P6SM SCT020 OVC060
     FM230600 12015KT P6SM SCT010 OVC030
     FM230800 12014KT P6SM SCT005 BKN020
     FM231400 13013KT P6SM SCT010 BKN030
     FM231800 17022G28KT P6SM VCTS SCT025CB BKN035=

USA.gov is the U.S. government's official web portal to all federal, state and local government web resources and services.